Time;durP1;ratioP1;P1;durP2;ratioP2;P2;SDS_P1;SDS_P2;PMS_P1;PMS_P2;Temp;Humidity;BMP_temperature;BMP_pressure;BME280_temperature;BME280_humidity;BME280_pressure;Samples;Min_cycle;Max_cycle;Signal;HPM_P1;HPM_P2
2023/01/30 00:00:51;;;;;;;14.23;8.40;;;2.70;99.90;;;;;;5042552;28;20215;-79
2023/01/30 00:03:16;;;;;;;16.40;8.20;;;2.80;99.90;;;;;;5042013;28;20206;-79
2023/01/30 00:05:42;;;;;;;12.87;8.53;;;2.80;99.90;;;;;;5041604;28;20238;-80
2023/01/30 00:08:07;;;;;;;15.20;9.03;;;2.80;99.90;;;;;;5046840;28;20222;-80
2023/01/30 00:10:33;;;;;;;15.20;9.30;;;2.80;99.90;;;;;;5023286;28;20742;-79
2023/01/30 00:12:59;;;;;;;11.73;8.07;;;2.80;99.90;;;;;;5044583;28;20205;-78
2023/01/30 00:15:24;;;;;;;11.40;7.70;;;2.80;99.90;;;;;;5040544;28;20222;-81
2023/01/30 00:17:50;;;;;;;13.73;8.90;;;2.80;99.90;;;;;;5042843;28;20876;-79
2023/01/30 00:20:15;;;;;;;15.83;9.60;;;2.80;99.90;;;;;;5042657;28;20201;-80
2023/01/30 00:22:41;;;;;;;14.30;8.83;;;2.90;99.90;;;;;;5025031;28;20592;-80
2023/01/30 00:25:07;;;;;;;16.40;9.63;;;2.80;99.90;;;;;;5033240;28;20585;-80
2023/01/30 00:27:32;;;;;;;16.90;9.60;;;2.80;99.90;;;;;;5041524;28;20223;-78
2023/01/30 00:29:58;;;;;;;14.67;8.87;;;2.80;99.90;;;;;;5044453;28;20261;-80
2023/01/30 00:32:25;;;;;;;14.57;9.87;;;2.80;99.90;;;;;;5045246;28;20177;-80
2023/01/30 00:34:51;;;;;;;16.23;9.50;;;2.80;99.90;;;;;;5046618;28;20275;-79
2023/01/30 00:37:16;;;;;;;15.37;9.97;;;2.80;99.90;;;;;;5043060;28;20620;-80
2023/01/30 00:39:42;;;;;;;15.77;9.80;;;2.80;99.90;;;;;;5025923;28;20244;-80
2023/01/30 00:47:37;;;;;;;16.77;9.47;;;2.80;99.90;;;;;;5040144;28;20181;-79
2023/01/30 00:50:04;;;;;;;18.40;9.87;;;2.80;99.90;;;;;;5032813;28;20203;-79
2023/01/30 00:52:29;;;;;;;16.57;10.27;;;2.80;99.90;;;;;;5044306;28;20203;-76
2023/01/30 00:54:55;;;;;;;16.40;10.03;;;2.80;99.90;;;;;;5026750;28;20293;-79
2023/01/30 00:57:20;;;;;;;16.50;9.53;;;2.80;99.90;;;;;;5043516;28;20208;-80
2023/01/30 00:59:46;;;;;;;15.33;9.83;;;2.80;99.90;;;;;;5037886;28;20180;-79
2023/01/30 01:02:11;;;;;;;15.87;9.40;;;2.90;99.90;;;;;;5044035;28;20174;-79
2023/01/30 01:04:42;;;;;;;16.80;10.67;;;2.80;99.90;;;;;;5041442;28;20235;-79
2023/01/30 01:07:16;;;;;;;17.70;10.37;;;2.80;99.90;;;;;;5028902;28;20204;-81
2023/01/30 01:09:42;;;;;;;19.20;10.63;;;2.90;99.90;;;;;;5019196;28;20295;-79
2023/01/30 01:12:08;;;;;;;18.30;10.00;;;2.80;99.90;;;;;;5043639;28;20773;-79
2023/01/30 01:14:34;;;;;;;15.13;9.63;;;2.80;99.90;;;;;;5042007;28;20189;-80
2023/01/30 01:16:59;;;;;;;15.33;9.70;;;2.80;99.90;;;;;;5050561;28;20713;-79
2023/01/30 01:19:25;;;;;;;19.87;10.70;;;2.90;99.90;;;;;;5048933;28;20205;-80
2023/01/30 01:21:51;;;;;;;19.40;10.83;;;2.90;99.90;;;;;;5039649;28;20698;-79
2023/01/30 01:24:17;;;;;;;19.23;10.43;;;2.90;99.90;;;;;;5052072;28;20278;-79
2023/01/30 01:26:43;;;;;;;15.77;10.13;;;2.90;99.90;;;;;;5047185;28;20223;-79
2023/01/30 01:29:14;;;;;;;15.93;9.57;;;2.80;99.90;;;;;;5048740;28;20677;-79
2023/01/30 01:31:40;;;;;;;16.40;10.20;;;2.80;99.90;;;;;;5046418;28;20209;-79
2023/01/30 01:34:05;;;;;;;17.27;9.87;;;2.90;99.90;;;;;;5055916;28;20204;-78
2023/01/30 01:36:31;;;;;;;17.57;9.97;;;2.80;99.90;;;;;;5047756;28;20236;-79
2023/01/30 01:38:57;;;;;;;17.13;9.90;;;2.90;99.90;;;;;;5033605;28;20207;-80
2023/01/30 01:41:23;;;;;;;18.23;10.97;;;2.90;99.90;;;;;;5050076;28;20585;-80
2023/01/30 01:44:09;;;;;;;17.83;10.90;;;2.90;99.90;;;;;;5048936;28;20297;-79
2023/01/30 01:46:43;;;;;;;17.63;11.03;;;2.90;99.90;;;;;;5049513;28;20627;-80
2023/01/30 01:49:31;;;;;;;18.93;10.70;;;2.90;99.90;;;;;;5036170;28;20234;-79
2023/01/30 01:52:02;;;;;;;18.53;10.97;;;2.90;99.90;;;;;;5031187;28;20205;-79
2023/01/30 01:54:33;;;;;;;17.77;10.63;;;2.90;99.90;;;;;;5049657;28;20225;-82
2023/01/30 01:57:03;;;;;;;17.17;10.87;;;2.80;99.90;;;;;;5027104;28;20281;-79
2023/01/30 01:59:33;;;;;;;18.10;10.93;;;2.80;99.90;;;;;;5030946;28;20176;-80
2023/01/30 02:02:03;;;;;;;19.87;11.40;;;2.80;99.90;;;;;;5038934;28;20205;-79
2023/01/30 02:07:19;;;;;;;20.73;10.80;;;2.90;99.90;;;;;;5052571;28;20208;-80
2023/01/30 02:09:45;;;;;;;20.27;11.20;;;2.80;99.90;;;;;;5027926;28;20221;-79
2023/01/30 02:12:13;;;;;;;22.20;11.93;;;2.80;99.90;;;;;;5035002;28;20592;-80
2023/01/30 02:14:40;;;;;;;20.37;11.73;;;2.70;99.90;;;;;;5030891;28;20235;-80
2023/01/30 02:17:05;;;;;;;20.47;12.50;;;2.70;99.90;;;;;;5035964;28;20210;-80
2023/01/30 02:19:56;;;;;;;22.53;13.20;;;2.70;99.90;;;;;;5046472;28;20219;-79
2023/01/30 02:22:46;;;;;;;20.33;11.67;;;2.70;99.90;;;;;;5035365;28;20240;-79
2023/01/30 02:25:23;;;;;;;18.83;10.93;;;2.60;99.90;;;;;;5048589;28;20208;-79
2023/01/30 02:27:57;;;;;;;19.23;12.30;;;2.60;99.90;;;;;;5047055;28;20232;-79
2023/01/30 02:30:41;;;;;;;22.00;12.27;;;2.60;99.90;;;;;;5048977;28;20227;-78
2023/01/30 02:33:13;;;;;;;26.10;13.57;;;2.70;99.90;;;;;;5032588;28;20209;-79
2023/01/30 02:36:01;;;;;;;21.07;12.10;;;2.60;99.90;;;;;;5049615;28;20200;-78
2023/01/30 02:38:51;;;;;;;21.37;13.00;;;2.70;99.90;;;;;;5050690;28;20210;-79
2023/01/30 02:41:50;;;;;;;23.63;13.27;;;2.70;99.90;;;;;;5050918;28;20204;-80
2023/01/30 02:44:26;;;;;;;21.30;12.07;;;2.70;99.90;;;;;;5050078;28;20573;-79
2023/01/30 02:47:02;;;;;;;22.07;13.60;;;2.70;99.90;;;;;;5049489;28;20233;-79
2023/01/30 02:49:35;;;;;;;19.70;12.07;;;2.70;99.90;;;;;;5057463;28;20195;-79
2023/01/30 02:52:02;;;;;;;22.43;13.27;;;2.60;99.90;;;;;;5041280;28;20707;-78
2023/01/30 02:54:27;;;;;;;23.90;13.50;;;2.60;99.90;;;;;;5039602;28;20207;-79
2023/01/30 02:56:57;;;;;;;22.50;13.00;;;2.60;99.90;;;;;;5041509;28;20227;-79
2023/01/30 02:59:36;;;;;;;23.93;13.00;;;2.60;99.90;;;;;;5039332;28;20175;-79
2023/01/30 03:02:43;;;;;;;25.43;13.90;;;2.60;99.90;;;;;;5058807;28;20208;-79
2023/01/30 03:06:03;;;;;;;21.80;12.73;;;2.60;99.90;;;;;;4939544;29;20271;-79
2023/01/30 03:08:54;;;;;;;20.60;12.23;;;2.70;99.90;;;;;;4977687;28;20207;-79
2023/01/30 03:11:25;;;;;;;21.40;13.13;;;2.60;99.90;;;;;;5053592;28;20229;-79
2023/01/30 03:14:08;;;;;;;23.10;12.90;;;2.70;99.90;;;;;;5050672;28;20213;-79
2023/01/30 03:16:38;;;;;;;21.20;12.70;;;2.70;99.90;;;;;;5048110;28;20212;-78
2023/01/30 03:19:08;;;;;;;21.27;12.57;;;2.80;99.90;;;;;;5030487;28;20801;-81
2023/01/30 03:21:38;;;;;;;22.33;12.60;;;2.70;99.90;;;;;;5042834;28;20208;-78
2023/01/30 03:24:04;;;;;;;23.63;12.20;;;2.80;99.90;;;;;;5043655;28;20207;-80
2023/01/30 03:26:33;;;;;;;22.80;13.77;;;2.80;99.90;;;;;;5022647;28;20212;-80
2023/01/30 03:29:00;;;;;;;21.50;12.10;;;2.80;99.90;;;;;;5031978;28;20283;-79
2023/01/30 03:31:25;;;;;;;19.40;12.13;;;2.80;99.90;;;;;;5044996;28;20204;-80
2023/01/30 03:33:51;;;;;;;20.97;11.23;;;2.90;99.90;;;;;;5030502;28;20599;-79
2023/01/30 03:36:17;;;;;;;20.63;12.07;;;2.80;99.90;;;;;;5029696;28;20216;-80
2023/01/30 03:38:43;;;;;;;21.13;12.50;;;2.90;99.90;;;;;;5047055;28;20211;-78
2023/01/30 03:41:08;;;;;;;20.37;12.33;;;2.90;99.90;;;;;;5046602;28;20787;-79
2023/01/30 03:43:34;;;;;;;20.10;11.63;;;2.90;99.90;;;;;;5042360;28;20288;-79
2023/01/30 03:46:00;;;;;;;24.10;13.17;;;3.00;99.90;;;;;;5045801;28;20215;-78
2023/01/30 03:48:25;;;;;;;20.03;12.13;;;3.00;99.90;;;;;;5027514;28;20211;-80
2023/01/30 03:50:51;;;;;;;22.70;12.40;;;3.00;99.90;;;;;;5023719;28;20696;-78
2023/01/30 03:53:17;;;;;;;23.40;12.77;;;3.00;99.90;;;;;;5047774;28;20175;-79
2023/01/30 03:55:45;;;;;;;20.63;11.87;;;3.00;99.90;;;;;;5041219;28;20217;-79
2023/01/30 03:58:11;;;;;;;21.53;11.77;;;3.00;99.90;;;;;;5048938;28;20240;-79
2023/01/30 04:00:37;;;;;;;19.90;10.70;;;3.00;99.90;;;;;;5046406;28;20204;-79
2023/01/30 04:03:02;;;;;;;19.43;11.17;;;3.00;99.90;;;;;;5038152;28;20670;-79
2023/01/30 04:05:28;;;;;;;21.83;11.93;;;3.00;99.90;;;;;;5055959;28;20203;-80
2023/01/30 04:07:58;;;;;;;20.60;12.37;;;3.00;99.90;;;;;;5036032;28;20268;-79
2023/01/30 04:10:24;;;;;;;18.23;11.70;;;3.10;99.90;;;;;;5049266;28;20215;-77
2023/01/30 04:12:50;;;;;;;19.67;11.67;;;3.00;99.90;;;;;;5021276;28;20214;-79
2023/01/30 04:15:16;;;;;;;20.93;12.53;;;3.10;99.90;;;;;;5043768;28;20301;-77
2023/01/30 04:17:44;;;;;;;22.10;12.40;;;3.10;99.90;;;;;;5044472;28;20238;-77
2023/01/30 04:20:10;;;;;;;22.83;12.20;;;3.10;99.90;;;;;;5042996;28;20221;-77
2023/01/30 04:22:35;;;;;;;21.33;11.40;;;3.20;99.90;;;;;;5024199;28;20206;-76
2023/01/30 04:25:02;;;;;;;21.03;12.13;;;3.20;99.90;;;;;;5047135;28;20430;-77
2023/01/30 04:27:28;;;;;;;20.33;11.83;;;3.30;99.90;;;;;;5044340;28;20624;-78
2023/01/30 04:29:53;;;;;;;22.00;11.87;;;3.30;99.90;;;;;;5042784;28;20199;-76
2023/01/30 04:32:19;;;;;;;19.57;12.23;;;3.30;99.90;;;;;;5039700;28;20176;-77
2023/01/30 04:34:45;;;;;;;19.17;11.10;;;3.30;99.90;;;;;;5026865;28;20214;-79
2023/01/30 04:37:11;;;;;;;20.60;12.27;;;3.40;99.90;;;;;;5032875;28;20215;-78
2023/01/30 04:39:36;;;;;;;20.60;11.63;;;3.40;99.90;;;;;;5016638;28;20211;-78
2023/01/30 04:42:02;;;;;;;19.40;11.80;;;3.40;99.90;;;;;;5045223;28;20322;-79
2023/01/30 04:44:28;;;;;;;19.90;12.03;;;3.40;99.90;;;;;;5046776;28;20203;-78
2023/01/30 04:46:54;;;;;;;18.70;11.47;;;3.40;99.90;;;;;;5042919;28;20216;-77
2023/01/30 04:49:20;;;;;;;19.33;11.47;;;3.40;99.90;;;;;;5023539;28;20211;-78
2023/01/30 04:51:46;;;;;;;18.17;11.60;;;3.40;99.90;;;;;;5042888;28;20298;-77
2023/01/30 04:54:11;;;;;;;23.13;12.43;;;3.40;99.90;;;;;;5025961;28;20214;-78
2023/01/30 04:56:37;;;;;;;19.37;12.43;;;3.40;99.90;;;;;;5045065;28;20725;-79
2023/01/30 04:59:03;;;;;;;22.33;12.40;;;3.40;99.90;;;;;;5031936;28;20208;-79
2023/01/30 05:01:31;;;;;;;23.00;14.98;;;3.40;99.90;;;;;;5048724;28;20478;-79
2023/01/30 05:03:57;;;;;;;22.57;13.03;;;3.40;99.90;;;;;;5042601;28;20210;-78
2023/01/30 05:06:23;;;;;;;22.47;12.13;;;3.40;99.90;;;;;;5042995;28;20579;-78
2023/01/30 05:08:50;;;;;;;22.70;12.53;;;3.40;99.90;;;;;;5045380;28;20176;-78
2023/01/30 05:11:16;;;;;;;21.57;11.97;;;3.40;99.90;;;;;;5048218;28;20174;-77
2023/01/30 05:13:42;;;;;;;22.17;12.33;;;3.30;99.90;;;;;;5042892;28;20284;-77
2023/01/30 05:16:09;;;;;;;21.00;12.73;;;3.30;99.90;;;;;;5035029;28;20302;-79
2023/01/30 05:18:35;;;;;;;24.73;13.17;;;3.20;99.90;;;;;;5046427;28;20213;-77
2023/01/30 05:21:12;;;;;;;22.63;12.43;;;3.20;99.90;;;;;;5031255;28;20175;-77
2023/01/30 05:23:38;;;;;;;23.77;12.63;;;3.20;99.90;;;;;;5042800;28;20167;-79
2023/01/30 05:26:04;;;;;;;24.30;13.40;;;3.20;99.90;;;;;;5027488;28;20215;-78
2023/01/30 05:28:30;;;;;;;21.90;12.80;;;3.20;99.90;;;;;;5029089;28;20207;-78
2023/01/30 05:31:11;;;;;;;22.53;13.23;;;3.10;99.90;;;;;;5045332;28;20200;-78
2023/01/30 05:33:38;;;;;;;24.87;12.10;;;3.10;99.90;;;;;;5041402;28;20206;-78
2023/01/30 05:36:04;;;;;;;22.00;12.53;;;3.10;99.90;;;;;;5045023;28;20226;-78
2023/01/30 05:38:30;;;;;;;22.00;12.73;;;3.20;99.90;;;;;;5024534;28;20261;-79
2023/01/30 05:41:06;;;;;;;26.93;13.87;;;3.10;99.90;;;;;;5016723;28;20630;-78
2023/01/30 05:43:34;;;;;;;24.23;12.37;;;3.10;99.90;;;;;;5039206;28;20203;-76
2023/01/30 05:46:01;;;;;;;22.97;13.40;;;3.10;99.90;;;;;;5026461;28;20215;-78
2023/01/30 05:48:28;;;;;;;23.43;13.63;;;3.10;99.90;;;;;;5042770;28;20212;-78
2023/01/30 05:50:55;;;;;;;24.33;13.47;;;3.10;99.90;;;;;;5025556;28;20272;-78
2023/01/30 05:53:22;;;;;;;23.87;13.10;;;3.20;99.90;;;;;;5029638;28;20233;-79
2023/01/30 05:55:55;;;;;;;21.77;12.47;;;3.20;99.90;;;;;;5040790;28;20207;-76
2023/01/30 05:58:21;;;;;;;23.33;13.43;;;3.20;99.90;;;;;;5029426;28;20210;-79
2023/01/30 06:00:46;;;;;;;23.87;14.57;;;3.20;99.90;;;;;;5042571;28;20306;-79
2023/01/30 06:03:12;;;;;;;24.00;14.00;;;3.20;99.90;;;;;;5041913;28;20208;-79
2023/01/30 06:05:38;;;;;;;23.37;13.30;;;3.20;99.90;;;;;;5044556;28;20216;-78
2023/01/30 06:08:03;;;;;;;23.30;13.20;;;3.20;99.90;;;;;;5034196;28;20223;-77
2023/01/30 06:10:29;;;;;;;24.60;12.47;;;3.20;99.90;;;;;;5027733;28;20284;-79
2023/01/30 06:12:55;;;;;;;24.13;13.23;;;3.20;99.90;;;;;;5041772;28;20246;-80
2023/01/30 06:15:20;;;;;;;22.30;12.57;;;3.20;99.90;;;;;;5041474;28;20706;-78
2023/01/30 06:17:46;;;;;;;25.10;13.33;;;3.30;99.90;;;;;;5035039;28;20182;-78
2023/01/30 06:20:12;;;;;;;22.07;12.00;;;3.30;99.90;;;;;;5051943;28;20175;-78
2023/01/30 06:22:37;;;;;;;24.33;13.53;;;3.40;99.90;;;;;;5036743;28;20576;-80
2023/01/30 06:25:04;;;;;;;22.50;12.83;;;3.30;99.90;;;;;;5052096;28;20345;-79
2023/01/30 06:27:29;;;;;;;22.97;12.37;;;3.40;99.90;;;;;;5049547;28;20209;-79
2023/01/30 06:29:55;;;;;;;22.40;12.77;;;3.40;99.90;;;;;;5054265;28;20178;-80
2023/01/30 06:32:20;;;;;;;21.23;13.10;;;3.40;99.90;;;;;;5050608;28;20583;-80
2023/01/30 06:34:46;;;;;;;23.23;12.53;;;3.40;99.90;;;;;;5050344;28;20811;-80
2023/01/30 06:37:12;;;;;;;21.20;12.03;;;3.50;99.90;;;;;;5038397;28;20214;-80
2023/01/30 06:39:37;;;;;;;21.47;12.67;;;3.50;99.90;;;;;;5049942;28;20209;-79
2023/01/30 06:42:03;;;;;;;24.83;12.47;;;3.50;99.90;;;;;;5039931;28;20269;-79
2023/01/30 06:44:29;;;;;;;21.73;12.63;;;3.60;99.90;;;;;;5054089;28;20574;-80
2023/01/30 06:46:54;;;;;;;21.37;12.33;;;3.60;99.90;;;;;;5052817;28;20296;-80
2023/01/30 06:49:20;;;;;;;23.03;12.00;;;3.70;99.90;;;;;;5035492;28;20208;-79
2023/01/30 06:51:45;;;;;;;19.03;10.93;;;3.70;99.90;;;;;;5045227;28;20266;-79
2023/01/30 06:54:11;;;;;;;18.93;11.23;;;3.70;99.90;;;;;;5030294;28;20229;-79
2023/01/30 06:56:37;;;;;;;16.73;10.93;;;3.80;99.90;;;;;;5046061;28;20190;-79
2023/01/30 06:59:02;;;;;;;17.67;10.97;;;3.80;99.90;;;;;;5045814;28;20296;-79
2023/01/30 07:01:28;;;;;;;16.20;10.27;;;3.80;99.90;;;;;;5027963;28;20241;-80
2023/01/30 07:03:54;;;;;;;16.20;9.53;;;3.90;99.90;;;;;;5028703;28;20608;-79
2023/01/30 07:06:19;;;;;;;16.10;9.80;;;3.90;99.90;;;;;;5047288;28;20253;-78
2023/01/30 07:08:45;;;;;;;15.47;9.80;;;3.90;99.90;;;;;;5050659;28;20690;-78
2023/01/30 07:11:11;;;;;;;14.00;9.20;;;4.00;99.90;;;;;;5022301;28;20174;-77
2023/01/30 07:13:36;;;;;;;17.37;9.70;;;4.00;99.90;;;;;;5025647;28;20262;-79
2023/01/30 07:16:02;;;;;;;13.80;8.57;;;4.00;99.90;;;;;;5046719;28;20338;-78
2023/01/30 07:18:28;;;;;;;16.37;9.43;;;4.00;99.90;;;;;;5044647;28;20217;-79
2023/01/30 07:20:53;;;;;;;15.30;9.27;;;4.10;99.90;;;;;;5047882;28;20183;-79
2023/01/30 07:23:19;;;;;;;17.77;9.40;;;4.10;99.90;;;;;;5044492;28;20689;-79
2023/01/30 07:25:45;;;;;;;13.07;8.27;;;4.10;99.90;;;;;;5029655;28;20311;-79
2023/01/30 07:28:10;;;;;;;15.20;8.93;;;4.10;99.90;;;;;;5047183;28;20202;-79
2023/01/30 07:30:36;;;;;;;12.83;7.77;;;4.20;99.90;;;;;;5023154;28;20271;-79
2023/01/30 07:33:04;;;;;;;12.97;8.33;;;4.20;99.90;;;;;;5049105;28;20254;-79
2023/01/30 07:35:32;;;;;;;11.87;7.60;;;4.30;99.90;;;;;;5044211;28;20199;-79
2023/01/30 07:37:58;;;;;;;13.97;8.77;;;4.30;99.90;;;;;;5032513;28;20576;-79
2023/01/30 07:40:25;;;;;;;14.87;8.27;;;4.40;99.90;;;;;;5047754;28;20202;-80
2023/01/30 07:43:02;;;;;;;10.03;6.57;;;4.40;99.90;;;;;;5042741;28;20263;-78
2023/01/30 07:45:33;;;;;;;14.50;7.33;;;4.40;99.90;;;;;;5028899;28;20221;-79
2023/01/30 07:47:59;;;;;;;14.70;8.20;;;4.40;99.90;;;;;;5044550;28;20222;-79
2023/01/30 07:50:24;;;;;;;12.07;7.63;;;4.40;99.90;;;;;;5026359;28;20186;-78
2023/01/30 07:52:50;;;;;;;12.77;7.27;;;4.50;99.90;;;;;;5048167;28;20330;-78
2023/01/30 07:55:16;;;;;;;11.20;7.70;;;4.50;99.90;;;;;;5042490;28;20208;-77
2023/01/30 07:57:41;;;;;;;14.07;6.80;;;4.50;99.90;;;;;;5048293;28;20207;-79
2023/01/30 08:00:09;;;;;;;12.17;7.77;;;4.50;99.90;;;;;;5033740;28;20698;-79
2023/01/30 08:02:35;;;;;;;10.63;6.63;;;4.50;99.90;;;;;;5044072;28;20523;-79
2023/01/30 08:05:01;;;;;;;10.50;6.33;;;4.50;99.90;;;;;;5048039;28;20206;-78
2023/01/30 08:07:27;;;;;;;11.03;6.27;;;4.50;99.90;;;;;;5042715;28;20204;-80
2023/01/30 08:09:52;;;;;;;10.47;6.83;;;4.60;99.90;;;;;;5027551;28;20215;-79
2023/01/30 08:12:18;;;;;;;9.63;6.80;;;4.60;99.90;;;;;;5048560;28;20351;-77
2023/01/30 08:14:43;;;;;;;12.93;7.20;;;4.70;99.90;;;;;;5042082;28;20176;-79
2023/01/30 08:17:09;;;;;;;9.83;5.87;;;4.70;99.90;;;;;;5034153;28;20198;-80
2023/01/30 08:19:34;;;;;;;10.73;6.47;;;4.70;99.90;;;;;;5042458;28;20291;-77
2023/01/30 08:22:00;;;;;;;12.40;7.20;;;4.70;99.90;;;;;;5046691;28;20210;-76
2023/01/30 08:24:26;;;;;;;9.87;6.30;;;4.70;99.90;;;;;;5028472;28;20219;-79
2023/01/30 08:26:51;;;;;;;12.47;5.80;;;4.70;99.90;;;;;;5042762;28;20330;-79
2023/01/30 08:29:17;;;;;;;8.87;5.53;;;4.80;99.90;;;;;;5050787;28;20175;-78
2023/01/30 08:31:43;;;;;;;8.17;5.83;;;4.90;99.90;;;;;;5024413;28;20289;-77
2023/01/30 08:34:08;;;;;;;6.97;5.00;;;4.90;99.90;;;;;;5025503;28;20199;-78
2023/01/30 08:36:34;;;;;;;7.97;5.50;;;4.90;99.90;;;;;;5045488;28;20302;-78
2023/01/30 08:39:00;;;;;;;8.67;5.17;;;4.90;99.90;;;;;;5047655;28;20230;-78
2023/01/30 08:41:27;;;;;;;9.67;6.03;;;4.90;99.90;;;;;;5028412;28;20193;-79
2023/01/30 08:43:53;;;;;;;7.50;5.27;;;4.90;99.90;;;;;;5045729;28;20300;-79
2023/01/30 08:46:20;;;;;;;9.70;5.53;;;4.90;99.90;;;;;;5048220;28;20855;-79
2023/01/30 08:48:46;;;;;;;6.70;4.97;;;4.90;99.90;;;;;;5029817;28;20702;-79
2023/01/30 08:51:12;;;;;;;7.23;4.23;;;4.90;99.90;;;;;;5032287;28;20245;-79
2023/01/30 08:53:38;;;;;;;7.30;4.53;;;4.90;99.90;;;;;;5043213;28;20259;-79
2023/01/30 08:56:04;;;;;;;10.83;5.00;;;5.00;99.90;;;;;;5032381;28;20312;-79
2023/01/30 08:58:29;;;;;;;6.77;4.47;;;5.00;99.90;;;;;;5040805;28;20247;-80
2023/01/30 09:00:55;;;;;;;9.07;4.97;;;5.10;99.90;;;;;;5032345;28;20206;-79
2023/01/30 09:03:21;;;;;;;6.53;4.40;;;5.20;99.90;;;;;;5034264;28;20204;-80
2023/01/30 09:05:46;;;;;;;8.60;4.43;;;5.30;99.90;;;;;;5049279;28;20222;-81
2023/01/30 09:08:12;;;;;;;5.37;4.00;;;5.40;99.90;;;;;;5055818;28;20175;-80
2023/01/30 09:10:38;;;;;;;6.27;3.90;;;5.70;99.90;;;;;;5028714;28;20207;-80
2023/01/30 09:13:04;;;;;;;6.10;4.20;;;5.80;99.90;;;;;;5034496;28;20199;-80
2023/01/30 09:15:31;;;;;;;5.70;3.53;;;5.70;99.90;;;;;;5032287;28;20211;-80
2023/01/30 09:17:56;;;;;;;5.97;3.03;;;5.60;99.90;;;;;;5037912;28;20176;-80
2023/01/30 09:20:24;;;;;;;7.27;3.67;;;5.50;99.90;;;;;;5053684;28;20259;-79
2023/01/30 09:22:49;;;;;;;6.10;3.50;;;5.50;99.90;;;;;;5049969;28;20208;-80
2023/01/30 09:25:16;;;;;;;5.23;3.60;;;5.50;99.90;;;;;;5053331;28;20772;-81
2023/01/30 09:27:43;;;;;;;4.07;3.00;;;5.60;99.90;;;;;;5036087;28;20586;-80
2023/01/30 09:30:09;;;;;;;6.60;3.60;;;5.60;99.90;;;;;;5056086;28;20211;-80
2023/01/30 09:32:36;;;;;;;6.27;3.00;;;5.60;99.90;;;;;;5055915;28;20207;-80
2023/01/30 09:35:02;;;;;;;5.00;2.80;;;5.70;99.90;;;;;;5056490;28;20238;-81
2023/01/30 09:37:28;;;;;;;6.27;2.80;;;5.60;99.90;;;;;;5052756;28;20234;-80
2023/01/30 09:39:54;;;;;;;4.50;2.53;;;5.60;99.90;;;;;;5056156;28;20293;-80
2023/01/30 09:42:38;;;;;;;4.77;2.60;;;5.70;99.90;;;;;;5040671;28;20218;-80
2023/01/30 09:45:32;;;;;;;8.27;2.73;;;5.80;99.90;;;;;;5054494;28;20220;-80
2023/01/30 09:48:41;;;;;;;5.70;2.50;;;5.90;99.90;;;;;;5033331;28;20314;-80
2023/01/30 09:51:31;;;;;;;4.63;2.30;;;6.00;99.90;;;;;;5019222;28;20207;-80
2023/01/30 09:54:06;;;;;;;4.13;2.00;;;6.10;99.90;;;;;;5028419;28;20203;-79
2023/01/30 09:56:31;;;;;;;10.00;2.87;;;6.20;99.90;;;;;;5037538;28;20195;-80
2023/01/30 09:59:01;;;;;;;5.13;2.40;;;6.20;99.90;;;;;;5037949;28;20214;-81
2023/01/30 10:02:01;;;;;;;7.77;2.33;;;6.20;99.90;;;;;;5049212;28;20200;-81
2023/01/30 10:04:35;;;;;;;7.80;1.90;;;6.20;99.90;;;;;;5040164;28;20283;-80
2023/01/30 10:07:09;;;;;;;5.03;2.07;;;6.10;99.90;;;;;;5026598;28;20208;-78
2023/01/30 10:09:58;;;;;;;6.57;2.00;;;6.10;99.90;;;;;;5054065;28;20217;-77
2023/01/30 10:12:41;;;;;;;6.50;2.10;;;6.10;99.90;;;;;;5054498;28;20212;-80
2023/01/30 10:15:18;;;;;;;5.77;1.83;;;6.20;99.90;;;;;;5030716;28;20262;-78
2023/01/30 10:17:53;;;;;;;7.87;1.60;;;6.30;99.90;;;;;;5047905;28;20284;-80
2023/01/30 10:20:33;;;;;;;7.20;2.10;;;6.40;99.90;;;;;;5049829;28;20704;-79
2023/01/30 10:23:24;;;;;;;7.20;2.33;;;6.50;99.90;;;;;;5048366;28;20278;-79
2023/01/30 10:25:54;;;;;;;12.23;2.20;;;6.70;99.90;;;;;;5047268;28;20222;-79
2023/01/30 10:28:58;;;;;;;8.13;2.13;;;7.10;99.90;;;;;;5033361;28;20227;-80
2023/01/30 10:31:28;;;;;;;14.40;2.30;;;7.50;99.90;;;;;;4997131;28;20209;-80
2023/01/30 10:34:08;;;;;;;8.53;2.03;;;7.40;99.90;;;;;;5049407;28;20302;-79
2023/01/30 10:36:46;;;;;;;11.83;3.30;;;7.30;99.90;;;;;;5048291;28;20215;-80
2023/01/30 10:39:38;;;;;;;17.27;2.87;;;7.10;99.90;;;;;;5029207;28;20306;-79
2023/01/30 10:42:13;;;;;;;10.20;2.57;;;7.00;99.90;;;;;;5048808;28;20234;-79
2023/01/30 10:44:41;;;;;;;14.07;2.83;;;6.80;99.90;;;;;;5045636;28;20221;-79
2023/01/30 10:47:22;;;;;;;13.97;2.80;;;6.80;99.90;;;;;;5031774;28;20211;-79
2023/01/30 10:49:54;;;;;;;20.47;3.73;;;6.80;99.90;;;;;;5047630;28;20208;-79
2023/01/30 10:52:39;;;;;;;11.70;2.97;;;6.70;99.90;;;;;;5045483;28;20204;-79
2023/01/30 10:55:34;;;;;;;18.03;3.87;;;6.60;99.90;;;;;;5049028;28;20216;-79
2023/01/30 10:58:47;;;;;;;16.03;3.33;;;6.60;99.90;;;;;;5031339;28;20760;-78
2023/01/30 11:01:22;;;;;;;9.63;3.20;;;6.50;99.90;;;;;;5005233;28;20241;-80
2023/01/30 11:04:01;;;;;;;14.10;2.90;;;6.50;99.90;;;;;;5021924;28;20281;-81
2023/01/30 11:06:26;;;;;;;11.60;2.90;;;6.60;99.90;;;;;;5049883;28;20573;-79
2023/01/30 11:08:54;;;;;;;14.50;3.00;;;6.60;99.90;;;;;;5051086;28;20211;-79
2023/01/30 11:11:30;;;;;;;10.83;2.80;;;6.60;99.90;;;;;;5050610;28;20267;-78
2023/01/30 11:14:03;;;;;;;25.53;10.73;;;6.60;99.90;;;;;;5057345;28;20249;-78
2023/01/30 11:16:30;;;;;;;8.87;2.27;;;6.50;99.90;;;;;;5058836;28;20342;-78
2023/01/30 11:18:58;;;;;;;10.87;2.67;;;6.60;99.90;;;;;;5040325;28;20285;-79
2023/01/30 11:21:29;;;;;;;18.27;3.57;;;6.70;99.90;;;;;;5057052;28;20230;-78
2023/01/30 11:23:55;;;;;;;10.43;2.53;;;6.80;99.90;;;;;;5050396;28;20195;-78
2023/01/30 11:26:29;;;;;;;8.43;2.07;;;7.00;99.90;;;;;;5040798;28;20211;-80
2023/01/30 11:28:55;;;;;;;11.77;3.27;;;7.10;99.90;;;;;;5023835;28;20686;-79
2023/01/30 11:31:25;;;;;;;11.37;2.93;;;7.00;99.90;;;;;;5029807;28;20265;-78
2023/01/30 11:34:14;;;;;;;12.53;3.10;;;7.00;99.90;;;;;;5030769;28;20225;-79
2023/01/30 11:36:40;;;;;;;13.30;2.90;;;7.00;99.90;;;;;;5048431;28;20218;-80
2023/01/30 11:39:12;;;;;;;15.20;3.03;;;7.10;99.90;;;;;;5051535;28;20215;-80
2023/01/30 11:41:43;;;;;;;11.13;2.27;;;7.00;99.90;;;;;;5046577;28;20647;-79
2023/01/30 11:44:10;;;;;;;11.27;3.20;;;6.90;99.90;;;;;;5033654;28;20216;-79
2023/01/30 11:46:38;;;;;;;12.80;3.70;;;6.90;99.90;;;;;;5048306;28;20728;-77
2023/01/30 11:49:14;;;;;;;16.30;2.90;;;6.80;99.90;;;;;;5052286;28;20855;-79
2023/01/30 11:51:43;;;;;;;16.23;3.80;;;6.70;99.90;;;;;;5036302;28;20211;-80
2023/01/30 11:54:17;;;;;;;16.90;3.33;;;6.70;99.90;;;;;;5039793;28;20219;-80
2023/01/30 11:56:50;;;;;;;14.03;2.53;;;6.70;99.90;;;;;;5035016;28;20199;-80
2023/01/30 11:59:27;;;;;;;11.53;2.47;;;6.60;99.90;;;;;;5054412;28;20222;-81
2023/01/30 12:02:04;;;;;;;12.83;2.73;;;6.60;99.90;;;;;;5031996;28;20232;-79
2023/01/30 12:04:29;;;;;;;10.60;2.23;;;6.40;99.90;;;;;;5034162;28;20219;-81
2023/01/30 12:07:20;;;;;;;8.77;1.90;;;6.30;99.90;;;;;;5023237;28;20311;-81
2023/01/30 12:09:49;;;;;;;8.77;2.40;;;6.00;99.90;;;;;;5051997;28;20215;-80
2023/01/30 12:12:42;;;;;;;10.33;2.17;;;5.70;99.90;;;;;;5049709;28;20215;-79
2023/01/30 12:15:14;;;;;;;7.73;2.83;;;5.60;99.90;;;;;;5030323;28;20231;-80
2023/01/30 12:17:49;;;;;;;12.00;2.37;;;5.60;99.90;;;;;;5048524;28;20199;-81
2023/01/30 12:20:35;;;;;;;8.70;2.50;;;5.60;99.90;;;;;;5046769;28;20265;-80
2023/01/30 12:23:12;;;;;;;12.07;2.47;;;5.70;99.90;;;;;;5033486;28;20274;-77
2023/01/30 12:25:57;;;;;;;9.73;2.73;;;6.00;99.90;;;;;;5049354;28;20220;-80
2023/01/30 12:28:28;;;;;;;17.17;4.17;;;6.10;99.90;;;;;;5056177;28;20203;-80
2023/01/30 12:31:03;;;;;;;15.63;4.37;;;6.30;99.90;;;;;;5052820;28;20635;-80
2023/01/30 12:33:33;;;;;;;9.93;2.23;;;6.50;99.90;;;;;;5028839;28;20208;-81
2023/01/30 12:36:26;;;;;;;13.80;3.43;;;6.60;99.90;;;;;;5037306;28;20579;-80
2023/01/30 12:39:01;;;;;;;14.07;3.10;;;6.70;99.90;;;;;;5052674;28;20646;-80
2023/01/30 12:41:44;;;;;;;11.77;3.10;;;6.80;99.90;;;;;;5052662;28;20182;-78
2023/01/30 12:44:31;;;;;;;15.93;2.87;;;6.90;99.90;;;;;;5039238;28;20204;-79
2023/01/30 12:47:14;;;;;;;13.70;2.67;;;7.10;99.90;;;;;;5050898;28;20239;-80
2023/01/30 12:49:54;;;;;;;13.23;3.23;;;7.10;99.90;;;;;;5045643;28;20214;-79
2023/01/30 12:53:00;;;;;;;10.60;2.70;;;7.10;99.90;;;;;;5045071;28;20211;-80
2023/01/30 12:55:55;;;;;;;10.47;2.77;;;7.20;99.90;;;;;;5046751;28;20262;-79
2023/01/30 12:58:31;;;;;;;9.73;2.50;;;7.30;99.90;;;;;;5025350;28;20681;-80
2023/01/30 13:01:15;;;;;;;9.77;2.67;;;7.20;99.90;;;;;;5047376;28;20584;-79
2023/01/30 13:03:57;;;;;;;14.07;3.07;;;7.10;99.90;;;;;;5042129;28;20766;-80
2023/01/30 13:06:48;;;;;;;11.47;2.37;;;7.10;99.90;;;;;;5045752;28;20219;-79
2023/01/30 13:09:43;;;;;;;9.47;2.33;;;7.10;99.90;;;;;;5027770;28;20657;-79
2023/01/30 13:12:19;;;;;;;9.20;2.17;;;7.00;99.90;;;;;;5019202;28;20222;-79